createdAt,value
2018-12-31T06:37:48.933Z,3.80
2018-12-31T06:40:19.056Z,3.90
2018-12-31T06:42:48.778Z,3.90
2018-12-31T06:45:18.063Z,3.90
2018-12-31T06:47:47.408Z,3.90
2018-12-31T06:50:16.858Z,3.90
2018-12-31T06:52:46.203Z,3.80
2018-12-31T06:55:17.943Z,3.80
2018-12-31T06:57:47.325Z,3.80
2018-12-31T07:00:16.682Z,3.90
2018-12-31T07:02:46.105Z,3.90
2018-12-31T07:05:15.537Z,3.90
2018-12-31T07:07:45.310Z,3.90
2018-12-31T07:10:14.955Z,3.90
2018-12-31T07:12:44.452Z,4.00
2018-12-31T07:15:13.963Z,4.00
2018-12-31T07:17:43.907Z,4.00
2018-12-31T07:20:13.414Z,4.00
2018-12-31T07:22:43.278Z,4.00
2018-12-31T07:25:12.847Z,4.00
2018-12-31T07:27:42.678Z,4.00
2018-12-31T07:30:12.175Z,4.00
2018-12-31T07:32:41.824Z,4.00
2018-12-31T07:35:11.665Z,4.00
2018-12-31T07:37:41.264Z,4.00
2018-12-31T07:40:10.871Z,4.00
2018-12-31T07:42:40.348Z,4.00
2018-12-31T07:45:10.104Z,4.00
2018-12-31T07:47:41.387Z,4.00
2018-12-31T07:50:10.976Z,4.00
2018-12-31T07:52:41.585Z,4.00
2018-12-31T07:55:11.133Z,4.00
2018-12-31T07:57:42.142Z,4.00
2018-12-31T08:03:40.145Z,4.00
2018-12-31T08:06:09.715Z,4.00
2018-12-31T08:08:39.359Z,4.10
2018-12-31T08:11:08.825Z,4.10
2018-12-31T08:13:38.338Z,4.00
2018-12-31T08:16:09.188Z,4.10
2018-12-31T08:18:38.760Z,4.10
2018-12-31T08:21:08.468Z,4.10
2018-12-31T08:23:38.003Z,4.10
2018-12-31T08:26:07.875Z,4.10
2018-12-31T08:28:37.300Z,4.10
2018-12-31T08:31:06.852Z,4.10
2018-12-31T08:33:36.771Z,4.10
2018-12-31T08:36:06.266Z,4.20
2018-12-31T08:38:35.877Z,4.20
2018-12-31T08:41:05.564Z,4.20
2018-12-31T08:43:35.400Z,4.20
2018-12-31T08:46:05.035Z,4.20
2018-12-31T08:48:34.532Z,4.20
2018-12-31T08:51:04.088Z,4.20
2018-12-31T08:53:33.603Z,4.20
2018-12-31T08:56:03.275Z,4.30
2018-12-31T08:58:32.841Z,4.30
2018-12-31T09:01:02.379Z,4.30
2018-12-31T09:03:32.020Z,4.30
2018-12-31T09:06:01.637Z,4.30
2018-12-31T09:08:31.110Z,4.30
2018-12-31T09:11:00.731Z,4.40
2018-12-31T09:13:30.234Z,4.40
2018-12-31T09:15:59.750Z,4.40
2018-12-31T09:18:29.376Z,4.40
2018-12-31T09:20:58.972Z,4.40
2018-12-31T09:23:28.791Z,4.50
2018-12-31T09:25:58.328Z,4.50
2018-12-31T09:28:28.257Z,4.50
2018-12-31T09:30:57.844Z,4.60
2018-12-31T09:33:27.507Z,4.60
2018-12-31T09:35:56.978Z,4.60
2018-12-31T09:38:26.924Z,4.60
2018-12-31T09:40:56.519Z,4.60
2018-12-31T09:43:26.074Z,4.70
2018-12-31T09:45:55.672Z,4.60
2018-12-31T09:48:25.235Z,4.60
2018-12-31T09:50:55.135Z,4.60
2018-12-31T09:53:24.717Z,4.70
2018-12-31T09:55:54.645Z,4.60
2018-12-31T09:58:24.157Z,4.60
2018-12-31T10:00:54.156Z,4.60
2018-12-31T10:03:23.706Z,4.60
2018-12-31T10:05:53.271Z,4.70
2018-12-31T10:08:22.788Z,4.60
2018-12-31T10:10:52.293Z,4.60
2018-12-31T10:13:22.022Z,4.70
2018-12-31T10:15:51.508Z,4.70
2018-12-31T10:18:20.996Z,4.80
2018-12-31T10:20:50.568Z,4.80
2018-12-31T10:23:20.295Z,4.80
2018-12-31T10:25:50.148Z,4.80
2018-12-31T10:28:19.670Z,4.90
2018-12-31T10:30:49.381Z,4.90
2018-12-31T10:33:19.031Z,5.00
2018-12-31T10:35:49.341Z,5.10
2018-12-31T10:38:19.141Z,5.10
2018-12-31T10:40:48.672Z,5.10
2018-12-31T10:43:18.344Z,5.20
2018-12-31T10:45:47.938Z,5.30
2018-12-31T10:48:18.629Z,5.20
2018-12-31T10:50:48.230Z,5.20
2018-12-31T10:53:17.775Z,5.10
2018-12-31T10:55:47.681Z,5.00
2018-12-31T10:58:17.289Z,5.10
2018-12-31T11:00:47.155Z,5.10
2018-12-31T11:03:16.961Z,5.10
2018-12-31T11:05:46.637Z,5.10
2018-12-31T11:08:16.302Z,5.20
2018-12-31T11:10:45.919Z,5.30
2018-12-31T11:13:15.558Z,5.30
2018-12-31T11:15:45.228Z,5.40
2018-12-31T11:18:14.802Z,5.40
2018-12-31T11:20:44.532Z,5.50
2018-12-31T11:23:14.113Z,5.50
2018-12-31T11:25:43.690Z,5.60
2018-12-31T11:28:13.397Z,5.60
2018-12-31T11:30:42.926Z,5.50
2018-12-31T11:33:12.467Z,5.50
2018-12-31T11:35:41.960Z,5.60
2018-12-31T11:38:11.566Z,5.70
2018-12-31T11:40:41.259Z,5.80
2018-12-31T11:43:10.782Z,5.80
2018-12-31T11:45:40.519Z,5.80
2018-12-31T11:48:10.164Z,5.80
2018-12-31T11:50:39.775Z,5.90
2018-12-31T11:53:09.530Z,6.00
2018-12-31T11:55:39.277Z,6.00
2018-12-31T11:58:08.933Z,6.20
2018-12-31T12:03:27.375Z,6.10
2018-12-31T12:05:57.008Z,6.20
2018-12-31T12:08:26.750Z,6.30
2018-12-31T12:10:56.359Z,6.40
2018-12-31T12:13:26.060Z,6.40
2018-12-31T12:15:57.368Z,6.60
2018-12-31T12:18:27.095Z,6.50
2018-12-31T12:20:56.852Z,6.70
2018-12-31T12:23:26.518Z,7.10
2018-12-31T12:25:56.519Z,6.90
2018-12-31T12:28:26.121Z,6.70
2018-12-31T12:30:57.321Z,6.60
2018-12-31T12:33:26.970Z,6.60
2018-12-31T12:35:56.573Z,6.70
2018-12-31T12:38:26.158Z,6.60
2018-12-31T12:40:55.885Z,6.60
2018-12-31T12:43:25.545Z,6.50
2018-12-31T12:45:55.289Z,6.50
2018-12-31T12:48:25.234Z,6.60
2018-12-31T12:50:54.950Z,6.70
2018-12-31T12:53:24.760Z,6.60
2018-12-31T12:55:54.449Z,6.60
2018-12-31T12:58:24.545Z,6.60
2018-12-31T13:00:54.552Z,6.60
2018-12-31T13:03:24.244Z,6.70
2018-12-31T13:05:53.899Z,6.80
2018-12-31T13:08:23.512Z,6.70
2018-12-31T13:11:18.175Z,6.80
2018-12-31T13:13:47.805Z,6.80
2018-12-31T13:16:17.477Z,6.90
2018-12-31T13:18:48.375Z,6.80
2018-12-31T13:21:17.984Z,6.70
2018-12-31T13:23:47.732Z,6.70
2018-12-31T13:26:18.022Z,6.60
2018-12-31T13:28:47.812Z,6.80
2018-12-31T13:31:17.929Z,6.70
2018-12-31T13:33:47.699Z,6.70
2018-12-31T13:36:17.467Z,6.60
2018-12-31T13:39:06.054Z,6.70
2018-12-31T13:41:53.465Z,6.70
2018-12-31T13:44:23.056Z,6.70
2018-12-31T13:46:52.639Z,6.60
2018-12-31T13:49:22.813Z,6.60
2018-12-31T13:51:52.477Z,6.50
2018-12-31T13:54:22.169Z,6.50
2018-12-31T13:56:51.776Z,6.40
2018-12-31T13:59:21.569Z,6.40
2018-12-31T14:01:51.207Z,6.30
2018-12-31T14:04:22.027Z,6.30
2018-12-31T14:06:51.614Z,6.30
2018-12-31T14:09:21.447Z,6.30
2018-12-31T14:11:51.074Z,6.20
2018-12-31T14:14:20.752Z,6.20
2018-12-31T14:16:50.322Z,6.20
2018-12-31T14:19:19.935Z,6.20
2018-12-31T14:21:49.691Z,6.20
2018-12-31T14:24:19.836Z,6.20
2018-12-31T14:26:49.600Z,6.20
2018-12-31T14:29:19.187Z,6.20
2018-12-31T14:31:48.822Z,6.10
2018-12-31T14:34:18.507Z,6.20
2018-12-31T14:36:48.028Z,6.20
2018-12-31T14:39:17.717Z,6.10
2018-12-31T14:41:47.372Z,6.10
2018-12-31T14:44:17.226Z,6.10
2018-12-31T14:46:46.839Z,6.10
2018-12-31T14:49:16.761Z,6.10
2018-12-31T14:51:46.455Z,6.10
2018-12-31T14:54:16.206Z,6.10
2018-12-31T14:56:45.842Z,6.10
2018-12-31T14:59:15.509Z,6.00
2018-12-31T15:01:45.037Z,6.10
2018-12-31T15:04:15.007Z,6.10
2018-12-31T15:06:44.763Z,6.10
2018-12-31T15:09:14.525Z,6.10
2018-12-31T15:11:44.581Z,6.10
2018-12-31T15:14:14.368Z,6.10
2018-12-31T15:16:44.098Z,6.10
2018-12-31T15:19:13.708Z,6.10
2018-12-31T15:21:43.604Z,6.00
2018-12-31T15:24:13.253Z,6.00
2018-12-31T15:26:43.050Z,6.00
2018-12-31T15:29:12.846Z,6.00
2018-12-31T15:31:42.557Z,6.00
2018-12-31T15:34:12.252Z,6.00
2018-12-31T15:36:41.808Z,6.00
2018-12-31T15:39:11.519Z,6.00
2018-12-31T15:41:41.285Z,5.90
2018-12-31T15:44:10.981Z,5.90
2018-12-31T15:46:40.689Z,5.90
2018-12-31T15:49:10.604Z,5.90
2018-12-31T15:51:40.227Z,5.90
2018-12-31T15:54:09.911Z,5.90
2018-12-31T15:56:39.660Z,5.90
2018-12-31T15:59:09.731Z,5.90
2018-12-31T16:01:39.866Z,5.90
2018-12-31T16:04:09.751Z,5.90
2018-12-31T16:06:39.442Z,5.90
2018-12-31T16:09:09.125Z,6.00
2018-12-31T16:11:39.136Z,5.90
2018-12-31T16:14:09.014Z,5.90
2018-12-31T16:16:38.806Z,5.90
2018-12-31T16:19:08.448Z,5.90
2018-12-31T16:21:38.292Z,5.90
2018-12-31T16:24:43.835Z,5.90
2018-12-31T16:27:13.360Z,5.90
2018-12-31T16:29:43.488Z,5.90
2018-12-31T16:32:13.135Z,5.90
2018-12-31T16:34:42.927Z,5.90
2018-12-31T16:37:12.567Z,6.00
2018-12-31T16:39:42.149Z,6.00
2018-12-31T16:42:13.078Z,5.90
2018-12-31T16:44:42.749Z,6.00
2018-12-31T16:47:13.548Z,6.00
2018-12-31T16:49:43.107Z,6.00
2018-12-31T16:52:12.839Z,5.90
2018-12-31T16:55:18.112Z,5.90
2018-12-31T16:57:47.812Z,5.90
2018-12-31T17:00:17.460Z,5.80
2018-12-31T17:02:47.229Z,5.80
2018-12-31T17:05:17.448Z,5.90
2018-12-31T17:07:47.325Z,5.80
2018-12-31T17:10:17.011Z,5.80
2018-12-31T17:12:46.689Z,5.80
2018-12-31T17:15:16.202Z,5.80
2018-12-31T17:17:45.732Z,5.80
2018-12-31T17:20:15.264Z,5.80
2018-12-31T17:22:44.852Z,5.80
2018-12-31T17:25:14.317Z,5.80
2018-12-31T17:27:43.935Z,5.80
2018-12-31T17:30:13.432Z,5.90
2018-12-31T17:32:42.987Z,5.80
2018-12-31T17:35:12.548Z,5.90
2018-12-31T17:37:42.038Z,5.80
2018-12-31T17:40:11.542Z,5.80
2018-12-31T17:42:41.148Z,5.90
2018-12-31T17:45:10.680Z,5.80
2018-12-31T17:47:40.212Z,5.80
2018-12-31T17:50:09.764Z,5.80
2018-12-31T17:52:39.283Z,5.80
2018-12-31T17:55:08.780Z,5.80
2018-12-31T17:57:38.512Z,5.80
2018-12-31T18:00:10.618Z,5.70
2018-12-31T18:02:40.313Z,5.80
2018-12-31T18:05:10.094Z,5.70
2018-12-31T18:07:40.747Z,5.70
2018-12-31T18:10:10.684Z,5.60
2018-12-31T18:12:40.557Z,5.60
2018-12-31T18:15:10.250Z,5.50
2018-12-31T18:17:40.280Z,5.50
2018-12-31T18:20:10.644Z,5.50
2018-12-31T18:22:40.500Z,5.50
2018-12-31T18:25:10.091Z,5.50
2018-12-31T18:27:39.624Z,5.50
2018-12-31T18:30:10.549Z,5.50
2018-12-31T18:32:40.449Z,5.40
2018-12-31T18:35:10.139Z,5.50
2018-12-31T18:37:41.833Z,5.40
2018-12-31T18:40:11.025Z,5.40
2018-12-31T18:42:40.519Z,5.50
2018-12-31T18:45:10.269Z,5.40
2018-12-31T18:47:40.560Z,5.40
2018-12-31T18:50:10.091Z,5.40
2018-12-31T18:52:39.917Z,5.40
2018-12-31T18:55:09.382Z,5.40
2018-12-31T18:57:39.272Z,5.40
2018-12-31T19:00:09.560Z,5.40
2018-12-31T19:02:39.156Z,5.40
2018-12-31T19:05:09.006Z,5.40
2018-12-31T19:07:38.613Z,5.40
2018-12-31T19:10:08.279Z,5.40
2018-12-31T19:12:37.794Z,5.40
2018-12-31T19:15:09.499Z,5.30
2018-12-31T19:17:39.137Z,5.30
2018-12-31T19:20:08.616Z,5.30
2018-12-31T19:22:38.296Z,5.40
2018-12-31T19:25:07.850Z,5.30
2018-12-31T19:27:37.884Z,5.30
2018-12-31T19:30:07.988Z,5.40
2018-12-31T19:32:37.491Z,5.30
2018-12-31T19:35:07.174Z,5.40
2018-12-31T19:37:36.791Z,5.40
2018-12-31T19:40:06.425Z,5.40
2018-12-31T19:42:35.943Z,5.40
2018-12-31T19:45:05.640Z,5.40
2018-12-31T19:47:35.486Z,5.40
2018-12-31T19:50:05.542Z,5.40
2018-12-31T19:52:35.173Z,5.40
2018-12-31T19:55:07.080Z,5.40
2018-12-31T19:57:36.668Z,5.50
2018-12-31T20:00:08.192Z,5.40
2018-12-31T20:02:37.695Z,5.40
2018-12-31T20:05:07.326Z,5.40
2018-12-31T20:07:36.985Z,5.40
2018-12-31T20:10:06.839Z,5.40
2018-12-31T20:12:36.437Z,5.40
2018-12-31T20:15:07.519Z,5.30
2018-12-31T20:17:37.028Z,5.40
2018-12-31T20:20:07.015Z,5.40
2018-12-31T20:22:36.525Z,5.30
2018-12-31T20:25:06.462Z,5.40
2018-12-31T20:27:36.074Z,5.30
2018-12-31T20:30:06.395Z,5.30
2018-12-31T20:32:36.038Z,5.30
2018-12-31T20:35:05.836Z,5.30
2018-12-31T20:37:35.709Z,5.30
2018-12-31T20:40:41.005Z,5.20
2018-12-31T20:43:11.013Z,5.20
2018-12-31T20:45:40.552Z,5.20
2018-12-31T20:48:10.331Z,5.20
2018-12-31T20:50:39.903Z,5.30
2018-12-31T20:53:09.943Z,5.30
2018-12-31T20:55:39.537Z,5.30
2018-12-31T20:58:09.325Z,5.30
2018-12-31T21:00:38.931Z,5.30
2018-12-31T21:03:08.641Z,5.30
2018-12-31T21:05:38.158Z,5.30
2018-12-31T21:08:08.046Z,5.30
2018-12-31T21:10:37.580Z,5.30
2018-12-31T21:13:07.149Z,5.30
2018-12-31T21:15:36.624Z,5.30
2018-12-31T21:18:06.221Z,5.30
2018-12-31T21:20:35.992Z,5.20
2018-12-31T21:23:05.557Z,5.20
2018-12-31T21:25:35.116Z,5.20
2018-12-31T21:28:04.830Z,5.20
2018-12-31T21:30:34.347Z,5.20
2018-12-31T21:33:03.845Z,5.20
2018-12-31T21:35:33.432Z,5.20
2018-12-31T21:38:03.059Z,5.20
2018-12-31T21:40:32.927Z,5.20
2018-12-31T21:43:02.506Z,5.20
2018-12-31T21:45:34.680Z,5.20
2018-12-31T21:48:04.388Z,5.20
2018-12-31T21:50:33.974Z,5.20
2018-12-31T21:53:03.961Z,5.20
2018-12-31T21:55:33.679Z,5.20
2018-12-31T21:58:03.432Z,5.20
2018-12-31T22:00:33.182Z,5.10
2018-12-31T22:03:05.554Z,5.00
2018-12-31T22:05:35.147Z,5.00
2018-12-31T22:08:04.786Z,5.10
2018-12-31T22:10:34.647Z,5.00
2018-12-31T22:13:04.211Z,5.00
2018-12-31T22:15:33.832Z,5.00
2018-12-31T22:18:03.604Z,5.00
2018-12-31T22:20:33.157Z,5.00
2018-12-31T22:23:03.191Z,5.00
2018-12-31T22:25:32.713Z,4.90
2018-12-31T22:28:02.333Z,4.90
2018-12-31T22:30:31.859Z,4.90
2018-12-31T22:33:01.383Z,4.90
2018-12-31T22:35:31.315Z,4.90
2018-12-31T22:38:00.774Z,4.80
2018-12-31T22:40:30.379Z,4.90
2018-12-31T22:42:59.945Z,4.80
2018-12-31T22:45:29.472Z,4.80
2018-12-31T22:47:59.499Z,4.80
2018-12-31T22:50:29.008Z,4.80
2018-12-31T22:52:58.594Z,4.80
2018-12-31T22:55:28.257Z,4.80
2018-12-31T22:57:57.870Z,4.80
2018-12-31T23:00:29.915Z,4.80
2018-12-31T23:02:59.550Z,4.80
2018-12-31T23:05:30.866Z,4.80
2018-12-31T23:08:00.467Z,4.80
2018-12-31T23:10:30.130Z,4.80
2018-12-31T23:12:59.736Z,4.80
2018-12-31T23:15:30.099Z,4.80
2018-12-31T23:17:59.796Z,4.80
2018-12-31T23:20:29.444Z,4.80
2018-12-31T23:22:59.452Z,4.70
2018-12-31T23:25:28.954Z,4.70
2018-12-31T23:27:58.484Z,4.70
2018-12-31T23:30:27.961Z,4.70
2018-12-31T23:32:57.693Z,4.70
2018-12-31T23:35:27.533Z,4.80
2018-12-31T23:37:57.341Z,4.70
2018-12-31T23:40:26.887Z,4.80
2018-12-31T23:42:56.421Z,4.80
2018-12-31T23:45:26.029Z,4.80
2018-12-31T23:47:55.932Z,4.70
2018-12-31T23:50:25.516Z,4.80
2018-12-31T23:52:55.066Z,4.80
2018-12-31T23:55:24.969Z,4.80
2018-12-31T23:57:54.678Z,4.80
